Lake Worth, Florida
Current Conditions -  °F | °C
As of 7:53 AM on Saturday 20 Dec 2014 (Local Time) from KPBI Reporting Station
Light Fog Light Fog  
Wind Chill: 63°   Ceiling: Unl
Heat Index: 63°   Visibility: 7mi
Dew Point: 60°   Wind: 0mph
Humidity: 90%   Direction: NA
Pressure: 30.09"   Gusts: NA
Location:  26.62°N, 80.06°W
Report Text: KPBI 201253Z 00000KT 7SM MIFG SCT040 SCT250 17/16 A3009 RMK AO2 SLP188 T01720156
Loading
Personal Weather Stations






























Interactive Weather Map New forecast layout! Learn more

10-Day Weather Forecast

Advertisements
Track Severe Weather on mobile